sensor_id;sensor_type;location;lat;lon;timestamp;temperature;humidity
8214;DHT22;4148;47.974;7.824;2023-09-19T00:00:38;17.40;1.00
8214;DHT22;4148;47.974;7.824;2023-09-19T00:03:08;17.40;1.00
8214;DHT22;4148;47.974;7.824;2023-09-19T00:05:37;17.30;1.00
8214;DHT22;4148;47.974;7.824;2023-09-19T00:08:06;17.30;1.00
8214;DHT22;4148;47.974;7.824;2023-09-19T00:10:34;17.30;1.00
8214;DHT22;4148;47.974;7.824;2023-09-19T00:13:03;17.40;1.00
8214;DHT22;4148;47.974;7.824;2023-09-19T00:15:38;17.30;1.00
8214;DHT22;4148;47.974;7.824;2023-09-19T00:18:07;17.30;1.00
8214;DHT22;4148;47.974;7.824;2023-09-19T00:20:36;17.30;1.00
8214;DHT22;4148;47.974;7.824;2023-09-19T00:23:05;17.20;1.00
8214;DHT22;4148;47.974;7.824;2023-09-19T00:25:35;17.20;1.00
8214;DHT22;4148;47.974;7.824;2023-09-19T00:28:04;17.20;1.00
8214;DHT22;4148;47.974;7.824;2023-09-19T00:30:34;17.20;1.00
8214;DHT22;4148;47.974;7.824;2023-09-19T00:33:06;17.20;1.00
8214;DHT22;4148;47.974;7.824;2023-09-19T00:35:34;17.20;1.00
8214;DHT22;4148;47.974;7.824;2023-09-19T00:38:03;17.30;1.00
8214;DHT22;4148;47.974;7.824;2023-09-19T00:40:33;17.30;1.00
8214;DHT22;4148;47.974;7.824;2023-09-19T00:43:02;17.30;1.00
8214;DHT22;4148;47.974;7.824;2023-09-19T00:45:36;17.20;1.00
8214;DHT22;4148;47.974;7.824;2023-09-19T00:48:06;17.20;1.00
8214;DHT22;4148;47.974;7.824;2023-09-19T00:50:36;17.30;1.00
8214;DHT22;4148;47.974;7.824;2023-09-19T00:53:04;17.30;1.00
8214;DHT22;4148;47.974;7.824;2023-09-19T00:55:34;17.30;99.90
8214;DHT22;4148;47.974;7.824;2023-09-19T00:58:04;17.30;99.90
8214;DHT22;4148;47.974;7.824;2023-09-19T01:00:34;17.30;99.90
8214;DHT22;4148;47.974;7.824;2023-09-19T01:03:03;17.30;99.90
8214;DHT22;4148;47.974;7.824;2023-09-19T01:05:35;17.30;99.90
8214;DHT22;4148;47.974;7.824;2023-09-19T01:08:03;17.30;99.90
8214;DHT22;4148;47.974;7.824;2023-09-19T01:10:33;17.40;73.80
8214;DHT22;4148;47.974;7.824;2023-09-19T01:13:07;17.40;8.50
8214;DHT22;4148;47.974;7.824;2023-09-19T01:15:48;17.40;99.90
8214;DHT22;4148;47.974;7.824;2023-09-19T01:18:29;17.40;83.90
8214;DHT22;4148;47.974;7.824;2023-09-19T01:21:07;17.40;99.90
8214;DHT22;4148;47.974;7.824;2023-09-19T01:23:53;17.40;99.90
8214;DHT22;4148;47.974;7.824;2023-09-19T01:26:45;17.40;1.00
8214;DHT22;4148;47.974;7.824;2023-09-19T01:29:30;17.40;99.90
8214;DHT22;4148;47.974;7.824;2023-09-19T01:32:04;17.40;1.00
8214;DHT22;4148;47.974;7.824;2023-09-19T01:34:46;17.40;1.00
8214;DHT22;4148;47.974;7.824;2023-09-19T01:37:15;17.40;70.70
8214;DHT22;4148;47.974;7.824;2023-09-19T01:39:47;17.40;53.20
8214;DHT22;4148;47.974;7.824;2023-09-19T01:42:23;17.40;1.00
8214;DHT22;4148;47.974;7.824;2023-09-19T01:44:57;17.40;99.90
8214;DHT22;4148;47.974;7.824;2023-09-19T01:47:32;17.50;99.90
8214;DHT22;4148;47.974;7.824;2023-09-19T01:50:11;17.50;99.90
8214;DHT22;4148;47.974;7.824;2023-09-19T01:52:47;17.50;1.00
8214;DHT22;4148;47.974;7.824;2023-09-19T01:55:17;17.50;1.00
8214;DHT22;4148;47.974;7.824;2023-09-19T01:57:51;17.50;99.90
8214;DHT22;4148;47.974;7.824;2023-09-19T02:00:23;17.50;99.90
8214;DHT22;4148;47.974;7.824;2023-09-19T02:02:53;17.50;99.90
8214;DHT22;4148;47.974;7.824;2023-09-19T02:05:24;17.40;1.00
8214;DHT22;4148;47.974;7.824;2023-09-19T02:07:53;17.40;1.00
8214;DHT22;4148;47.974;7.824;2023-09-19T02:10:22;17.50;99.90
8214;DHT22;4148;47.974;7.824;2023-09-19T02:12:50;17.50;99.90
8214;DHT22;4148;47.974;7.824;2023-09-19T02:15:18;17.50;1.00
8214;DHT22;4148;47.974;7.824;2023-09-19T02:17:46;17.50;1.00
8214;DHT22;4148;47.974;7.824;2023-09-19T02:20:15;17.60;1.00
8214;DHT22;4148;47.974;7.824;2023-09-19T02:22:43;17.50;99.90
8214;DHT22;4148;47.974;7.824;2023-09-19T02:25:12;17.40;99.90
8214;DHT22;4148;47.974;7.824;2023-09-19T02:27:40;17.30;1.00
8214;DHT22;4148;47.974;7.824;2023-09-19T02:30:09;17.20;1.00
8214;DHT22;4148;47.974;7.824;2023-09-19T02:32:37;17.20;1.00
8214;DHT22;4148;47.974;7.824;2023-09-19T02:35:07;17.20;99.90
8214;DHT22;4148;47.974;7.824;2023-09-19T02:37:39;17.10;99.90
8214;DHT22;4148;47.974;7.824;2023-09-19T02:40:08;17.10;99.90
8214;DHT22;4148;47.974;7.824;2023-09-19T02:42:46;17.20;99.90
8214;DHT22;4148;47.974;7.824;2023-09-19T02:45:16;17.20;99.90
8214;DHT22;4148;47.974;7.824;2023-09-19T02:47:45;17.20;99.90
8214;DHT22;4148;47.974;7.824;2023-09-19T02:50:14;17.10;1.00
8214;DHT22;4148;47.974;7.824;2023-09-19T02:52:45;17.00;1.00
8214;DHT22;4148;47.974;7.824;2023-09-19T02:55:15;17.00;1.00
8214;DHT22;4148;47.974;7.824;2023-09-19T02:57:46;16.90;1.00
8214;DHT22;4148;47.974;7.824;2023-09-19T03:00:14;16.90;1.00
8214;DHT22;4148;47.974;7.824;2023-09-19T03:02:42;16.90;1.00
8214;DHT22;4148;47.974;7.824;2023-09-19T03:05:11;16.80;1.00
8214;DHT22;4148;47.974;7.824;2023-09-19T03:07:39;16.80;1.00
8214;DHT22;4148;47.974;7.824;2023-09-19T03:10:11;16.80;1.00
8214;DHT22;4148;47.974;7.824;2023-09-19T03:12:41;16.90;1.00
8214;DHT22;4148;47.974;7.824;2023-09-19T03:15:09;16.80;1.00
8214;DHT22;4148;47.974;7.824;2023-09-19T03:17:38;16.90;1.00
8214;DHT22;4148;47.974;7.824;2023-09-19T03:20:11;16.90;1.00
8214;DHT22;4148;47.974;7.824;2023-09-19T03:22:40;16.90;99.90
8214;DHT22;4148;47.974;7.824;2023-09-19T03:25:08;17.00;1.00
8214;DHT22;4148;47.974;7.824;2023-09-19T03:27:40;17.00;1.00
8214;DHT22;4148;47.974;7.824;2023-09-19T03:30:08;17.00;1.00
8214;DHT22;4148;47.974;7.824;2023-09-19T03:32:44;17.00;1.00
8214;DHT22;4148;47.974;7.824;2023-09-19T03:35:12;17.00;1.00
8214;DHT22;4148;47.974;7.824;2023-09-19T03:37:41;17.00;99.90
8214;DHT22;4148;47.974;7.824;2023-09-19T03:40:10;17.00;1.00
8214;DHT22;4148;47.974;7.824;2023-09-19T03:42:39;17.00;1.00
8214;DHT22;4148;47.974;7.824;2023-09-19T03:45:08;17.00;1.00
8214;DHT22;4148;47.974;7.824;2023-09-19T03:47:39;17.10;99.90
8214;DHT22;4148;47.974;7.824;2023-09-19T03:50:08;17.10;99.90
8214;DHT22;4148;47.974;7.824;2023-09-19T03:52:38;17.00;99.90
8214;DHT22;4148;47.974;7.824;2023-09-19T03:55:06;17.10;99.90
8214;DHT22;4148;47.974;7.824;2023-09-19T03:57:36;17.00;99.90
8214;DHT22;4148;47.974;7.824;2023-09-19T04:00:06;17.00;1.00
8214;DHT22;4148;47.974;7.824;2023-09-19T04:02:39;17.00;1.00
8214;DHT22;4148;47.974;7.824;2023-09-19T04:05:08;17.00;1.00
8214;DHT22;4148;47.974;7.824;2023-09-19T04:07:36;17.00;1.00
8214;DHT22;4148;47.974;7.824;2023-09-19T04:10:05;17.00;99.90
8214;DHT22;4148;47.974;7.824;2023-09-19T04:12:35;17.00;1.00
8214;DHT22;4148;47.974;7.824;2023-09-19T04:15:05;17.00;1.00
8214;DHT22;4148;47.974;7.824;2023-09-19T04:17:33;17.00;99.90
8214;DHT22;4148;47.974;7.824;2023-09-19T04:20:02;17.00;99.90
8214;DHT22;4148;47.974;7.824;2023-09-19T04:22:33;17.00;99.90
8214;DHT22;4148;47.974;7.824;2023-09-19T04:25:01;17.10;1.00
8214;DHT22;4148;47.974;7.824;2023-09-19T04:27:30;17.00;99.90
8214;DHT22;4148;47.974;7.824;2023-09-19T04:29:57;17.10;1.00
8214;DHT22;4148;47.974;7.824;2023-09-19T04:32:28;17.00;1.00
8214;DHT22;4148;47.974;7.824;2023-09-19T04:34:56;17.00;1.00
8214;DHT22;4148;47.974;7.824;2023-09-19T04:37:27;17.10;1.00
8214;DHT22;4148;47.974;7.824;2023-09-19T04:39:55;17.10;99.90
8214;DHT22;4148;47.974;7.824;2023-09-19T04:42:23;17.10;99.90
8214;DHT22;4148;47.974;7.824;2023-09-19T04:44:51;17.10;99.90
8214;DHT22;4148;47.974;7.824;2023-09-19T04:47:19;17.20;99.90
8214;DHT22;4148;47.974;7.824;2023-09-19T04:49:50;17.20;99.90
8214;DHT22;4148;47.974;7.824;2023-09-19T04:52:18;17.20;99.90
8214;DHT22;4148;47.974;7.824;2023-09-19T04:54:47;17.20;99.90
8214;DHT22;4148;47.974;7.824;2023-09-19T04:57:15;17.20;99.90
8214;DHT22;4148;47.974;7.824;2023-09-19T04:59:43;17.20;99.90
8214;DHT22;4148;47.974;7.824;2023-09-19T05:02:11;17.20;99.90
8214;DHT22;4148;47.974;7.824;2023-09-19T05:04:40;17.20;99.90
8214;DHT22;4148;47.974;7.824;2023-09-19T05:07:09;17.10;99.90
8214;DHT22;4148;47.974;7.824;2023-09-19T05:09:38;17.10;99.90
8214;DHT22;4148;47.974;7.824;2023-09-19T05:12:06;17.10;99.90
8214;DHT22;4148;47.974;7.824;2023-09-19T05:14:34;17.10;99.90
8214;DHT22;4148;47.974;7.824;2023-09-19T05:17:02;17.10;99.90
8214;DHT22;4148;47.974;7.824;2023-09-19T05:19:31;17.10;99.90
8214;DHT22;4148;47.974;7.824;2023-09-19T05:21:59;17.10;99.90
8214;DHT22;4148;47.974;7.824;2023-09-19T05:24:28;17.20;99.90
8214;DHT22;4148;47.974;7.824;2023-09-19T05:26:56;17.20;99.90
8214;DHT22;4148;47.974;7.824;2023-09-19T05:29:24;17.20;99.90
8214;DHT22;4148;47.974;7.824;2023-09-19T05:31:52;17.10;99.90
8214;DHT22;4148;47.974;7.824;2023-09-19T05:34:21;17.10;99.90
8214;DHT22;4148;47.974;7.824;2023-09-19T05:36:49;17.20;99.90
8214;DHT22;4148;47.974;7.824;2023-09-19T05:39:18;17.20;99.90
8214;DHT22;4148;47.974;7.824;2023-09-19T05:41:48;17.20;99.90
8214;DHT22;4148;47.974;7.824;2023-09-19T05:44:16;17.20;99.90
8214;DHT22;4148;47.974;7.824;2023-09-19T05:46:44;17.20;99.90
8214;DHT22;4148;47.974;7.824;2023-09-19T05:49:12;17.20;99.90
8214;DHT22;4148;47.974;7.824;2023-09-19T05:51:40;17.20;99.90
8214;DHT22;4148;47.974;7.824;2023-09-19T05:54:08;17.20;99.90
8214;DHT22;4148;47.974;7.824;2023-09-19T05:56:37;17.20;99.90
8214;DHT22;4148;47.974;7.824;2023-09-19T05:59:06;17.20;99.90
8214;DHT22;4148;47.974;7.824;2023-09-19T06:01:34;17.30;99.90
8214;DHT22;4148;47.974;7.824;2023-09-19T06:04:03;17.30;99.90
8214;DHT22;4148;47.974;7.824;2023-09-19T06:06:31;17.30;99.90
8214;DHT22;4148;47.974;7.824;2023-09-19T06:09:00;17.30;99.90
8214;DHT22;4148;47.974;7.824;2023-09-19T06:11:29;17.30;99.90
8214;DHT22;4148;47.974;7.824;2023-09-19T06:13:59;17.30;99.90
8214;DHT22;4148;47.974;7.824;2023-09-19T06:16:30;17.30;99.90
8214;DHT22;4148;47.974;7.824;2023-09-19T06:18:59;17.30;99.90
8214;DHT22;4148;47.974;7.824;2023-09-19T06:21:27;17.30;99.90
8214;DHT22;4148;47.974;7.824;2023-09-19T06:23:55;17.40;1.00
8214;DHT22;4148;47.974;7.824;2023-09-19T06:26:24;17.30;38.60
8214;DHT22;4148;47.974;7.824;2023-09-19T06:28:53;17.30;99.90
8214;DHT22;4148;47.974;7.824;2023-09-19T06:31:22;17.30;99.90
8214;DHT22;4148;47.974;7.824;2023-09-19T06:33:55;17.30;1.00
8214;DHT22;4148;47.974;7.824;2023-09-19T06:36:23;17.40;99.90
8214;DHT22;4148;47.974;7.824;2023-09-19T06:38:51;17.30;73.60
8214;DHT22;4148;47.974;7.824;2023-09-19T06:41:19;17.30;79.50
8214;DHT22;4148;47.974;7.824;2023-09-19T06:43:52;17.30;56.50
8214;DHT22;4148;47.974;7.824;2023-09-19T06:46:20;17.40;1.00
8214;DHT22;4148;47.974;7.824;2023-09-19T06:48:48;17.40;1.00
8214;DHT22;4148;47.974;7.824;2023-09-19T06:51:18;17.40;1.00
8214;DHT22;4148;47.974;7.824;2023-09-19T06:53:46;17.40;99.90
8214;DHT22;4148;47.974;7.824;2023-09-19T06:56:14;17.40;99.90
8214;DHT22;4148;47.974;7.824;2023-09-19T06:58:42;17.50;1.00
8214;DHT22;4148;47.974;7.824;2023-09-19T07:01:10;17.50;1.00
8214;DHT22;4148;47.974;7.824;2023-09-19T07:03:42;17.60;1.00
8214;DHT22;4148;47.974;7.824;2023-09-19T07:06:12;17.60;1.00
8214;DHT22;4148;47.974;7.824;2023-09-19T07:08:41;17.60;1.00
8214;DHT22;4148;47.974;7.824;2023-09-19T07:11:11;17.60;1.00
8214;DHT22;4148;47.974;7.824;2023-09-19T07:13:40;17.70;91.50
8214;DHT22;4148;47.974;7.824;2023-09-19T07:16:09;17.70;1.00
8214;DHT22;4148;47.974;7.824;2023-09-19T07:18:54;17.80;99.90
8214;DHT22;4148;47.974;7.824;2023-09-19T07:21:23;17.90;1.00
8214;DHT22;4148;47.974;7.824;2023-09-19T07:23:52;17.90;95.90
8214;DHT22;4148;47.974;7.824;2023-09-19T07:26:20;18.00;99.90
8214;DHT22;4148;47.974;7.824;2023-09-19T07:28:48;18.10;1.00
8214;DHT22;4148;47.974;7.824;2023-09-19T07:31:16;18.10;1.00
8214;DHT22;4148;47.974;7.824;2023-09-19T07:33:44;18.10;99.90
8214;DHT22;4148;47.974;7.824;2023-09-19T07:36:12;18.10;1.00
8214;DHT22;4148;47.974;7.824;2023-09-19T07:38:40;18.20;1.00
8214;DHT22;4148;47.974;7.824;2023-09-19T07:41:10;18.30;1.00
8214;DHT22;4148;47.974;7.824;2023-09-19T07:43:38;18.30;1.00
8214;DHT22;4148;47.974;7.824;2023-09-19T07:46:08;18.30;1.00
8214;DHT22;4148;47.974;7.824;2023-09-19T07:48:37;18.30;1.00
8214;DHT22;4148;47.974;7.824;2023-09-19T07:51:06;18.30;43.90
8214;DHT22;4148;47.974;7.824;2023-09-19T07:53:35;18.30;99.90
8214;DHT22;4148;47.974;7.824;2023-09-19T07:56:05;18.30;1.00
8214;DHT22;4148;47.974;7.824;2023-09-19T07:58:39;18.50;99.90
8214;DHT22;4148;47.974;7.824;2023-09-19T08:01:10;18.80;1.00
8214;DHT22;4148;47.974;7.824;2023-09-19T08:03:40;19.00;99.90
8214;DHT22;4148;47.974;7.824;2023-09-19T08:06:10;19.00;99.90
8214;DHT22;4148;47.974;7.824;2023-09-19T08:08:38;19.00;99.90
8214;DHT22;4148;47.974;7.824;2023-09-19T08:11:06;19.10;98.80
8214;DHT22;4148;47.974;7.824;2023-09-19T08:13:40;19.10;1.00
8214;DHT22;4148;47.974;7.824;2023-09-19T08:16:10;19.00;99.90
8214;DHT22;4148;47.974;7.824;2023-09-19T08:18:38;19.00;99.90
8214;DHT22;4148;47.974;7.824;2023-09-19T08:21:07;18.80;96.60
8214;DHT22;4148;47.974;7.824;2023-09-19T08:23:37;18.90;99.90
8214;DHT22;4148;47.974;7.824;2023-09-19T08:26:06;19.40;58.90
8214;DHT22;4148;47.974;7.824;2023-09-19T08:28:35;19.80;1.00
8214;DHT22;4148;47.974;7.824;2023-09-19T08:31:05;20.40;99.90
8214;DHT22;4148;47.974;7.824;2023-09-19T08:33:34;20.60;1.00
8214;DHT22;4148;47.974;7.824;2023-09-19T08:36:03;20.90;99.90
8214;DHT22;4148;47.974;7.824;2023-09-19T08:38:33;21.10;99.90
8214;DHT22;4148;47.974;7.824;2023-09-19T08:41:05;21.40;99.90
8214;DHT22;4148;47.974;7.824;2023-09-19T08:43:33;21.70;63.80
8214;DHT22;4148;47.974;7.824;2023-09-19T08:46:09;21.90;31.80
8214;DHT22;4148;47.974;7.824;2023-09-19T08:48:42;22.20;1.00
8214;DHT22;4148;47.974;7.824;2023-09-19T08:51:17;22.30;1.00
8214;DHT22;4148;47.974;7.824;2023-09-19T08:53:51;22.40;1.00
8214;DHT22;4148;47.974;7.824;2023-09-19T08:56:19;22.40;1.00
8214;DHT22;4148;47.974;7.824;2023-09-19T08:58:53;22.80;1.00
8214;DHT22;4148;47.974;7.824;2023-09-19T09:01:23;23.10;1.00
8214;DHT22;4148;47.974;7.824;2023-09-19T09:03:53;23.30;1.00
8214;DHT22;4148;47.974;7.824;2023-09-19T09:06:23;23.20;1.00
8214;DHT22;4148;47.974;7.824;2023-09-19T09:08:51;23.10;1.00
8214;DHT22;4148;47.974;7.824;2023-09-19T09:11:19;22.80;1.00
8214;DHT22;4148;47.974;7.824;2023-09-19T09:13:48;22.40;1.00
8214;DHT22;4148;47.974;7.824;2023-09-19T09:16:17;22.10;1.00
8214;DHT22;4148;47.974;7.824;2023-09-19T09:18:47;22.10;1.00
8214;DHT22;4148;47.974;7.824;2023-09-19T09:21:20;22.10;1.00
8214;DHT22;4148;47.974;7.824;2023-09-19T09:23:48;22.20;1.00
8214;DHT22;4148;47.974;7.824;2023-09-19T09:26:16;22.10;1.00
8214;DHT22;4148;47.974;7.824;2023-09-19T09:28:45;21.90;1.00
8214;DHT22;4148;47.974;7.824;2023-09-19T09:31:22;22.00;1.00
8214;DHT22;4148;47.974;7.824;2023-09-19T09:33:56;22.20;1.00
8214;DHT22;4148;47.974;7.824;2023-09-19T09:36:34;22.10;1.00
8214;DHT22;4148;47.974;7.824;2023-09-19T09:39:03;22.00;1.00
8214;DHT22;4148;47.974;7.824;2023-09-19T09:41:43;21.70;1.00
8214;DHT22;4148;47.974;7.824;2023-09-19T09:44:13;21.90;1.00
8214;DHT22;4148;47.974;7.824;2023-09-19T09:46:43;22.00;1.00
8214;DHT22;4148;47.974;7.824;2023-09-19T09:49:48;22.50;1.00
8214;DHT22;4148;47.974;7.824;2023-09-19T09:52:44;22.70;1.00
8214;DHT22;4148;47.974;7.824;2023-09-19T09:55:12;22.30;1.00
8214;DHT22;4148;47.974;7.824;2023-09-19T09:57:40;22.40;1.00
8214;DHT22;4148;47.974;7.824;2023-09-19T10:00:11;22.70;1.00
8214;DHT22;4148;47.974;7.824;2023-09-19T10:02:47;23.10;1.00
8214;DHT22;4148;47.974;7.824;2023-09-19T10:05:17;23.50;1.00
8214;DHT22;4148;47.974;7.824;2023-09-19T10:07:55;23.50;1.00
8214;DHT22;4148;47.974;7.824;2023-09-19T10:10:31;23.40;1.00
8214;DHT22;4148;47.974;7.824;2023-09-19T10:13:12;23.30;1.00
8214;DHT22;4148;47.974;7.824;2023-09-19T10:15:43;23.10;1.00
8214;DHT22;4148;47.974;7.824;2023-09-19T10:18:16;22.80;1.00
8214;DHT22;4148;47.974;7.824;2023-09-19T10:20:49;22.70;1.00
8214;DHT22;4148;47.974;7.824;2023-09-19T10:23:18;23.00;1.00
8214;DHT22;4148;47.974;7.824;2023-09-19T10:25:50;23.30;1.00
8214;DHT22;4148;47.974;7.824;2023-09-19T10:28:20;23.80;1.00
8214;DHT22;4148;47.974;7.824;2023-09-19T10:30:51;24.10;1.00
8214;DHT22;4148;47.974;7.824;2023-09-19T10:33:21;24.30;99.90
8214;DHT22;4148;47.974;7.824;2023-09-19T10:35:51;24.60;1.00
8214;DHT22;4148;47.974;7.824;2023-09-19T10:40:52;25.80;99.90
8214;DHT22;4148;47.974;7.824;2023-09-19T10:43:25;25.40;99.90
8214;DHT22;4148;47.974;7.824;2023-09-19T10:45:53;25.30;99.90
8214;DHT22;4148;47.974;7.824;2023-09-19T10:48:25;25.10;99.90
8214;DHT22;4148;47.974;7.824;2023-09-19T10:51:01;24.60;99.90
8214;DHT22;4148;47.974;7.824;2023-09-19T10:53:43;24.70;99.90
8214;DHT22;4148;47.974;7.824;2023-09-19T10:56:18;24.60;99.90
8214;DHT22;4148;47.974;7.824;2023-09-19T10:58:47;24.40;99.90
8214;DHT22;4148;47.974;7.824;2023-09-19T11:01:16;24.40;99.90
8214;DHT22;4148;47.974;7.824;2023-09-19T11:03:45;24.50;99.90
8214;DHT22;4148;47.974;7.824;2023-09-19T11:06:17;24.50;99.90
8214;DHT22;4148;47.974;7.824;2023-09-19T11:09:00;24.50;99.90
8214;DHT22;4148;47.974;7.824;2023-09-19T11:11:47;24.70;99.90
8214;DHT22;4148;47.974;7.824;2023-09-19T11:14:39;24.80;99.90
8214;DHT22;4148;47.974;7.824;2023-09-19T11:17:41;25.00;99.90
8214;DHT22;4148;47.974;7.824;2023-09-19T11:20:25;25.50;99.90
8214;DHT22;4148;47.974;7.824;2023-09-19T11:23:20;25.20;99.90
8214;DHT22;4148;47.974;7.824;2023-09-19T11:25:51;25.10;99.90
8214;DHT22;4148;47.974;7.824;2023-09-19T11:28:36;24.90;99.90
8214;DHT22;4148;47.974;7.824;2023-09-19T11:34:39;25.00;99.90
8214;DHT22;4148;47.974;7.824;2023-09-19T11:40:30;25.70;99.90
8214;DHT22;4148;47.974;7.824;2023-09-19T11:42:59;25.90;99.90
8214;DHT22;4148;47.974;7.824;2023-09-19T11:46:04;25.90;99.90
8214;DHT22;4148;47.974;7.824;2023-09-19T11:48:35;25.90;99.90
8214;DHT22;4148;47.974;7.824;2023-09-19T11:51:11;25.70;99.90
8214;DHT22;4148;47.974;7.824;2023-09-19T11:53:46;25.50;99.90
8214;DHT22;4148;47.974;7.824;2023-09-19T11:56:18;25.40;99.90
8214;DHT22;4148;47.974;7.824;2023-09-19T11:58:49;25.40;99.90
8214;DHT22;4148;47.974;7.824;2023-09-19T12:01:25;25.40;99.90
8214;DHT22;4148;47.974;7.824;2023-09-19T12:03:57;25.50;99.90
8214;DHT22;4148;47.974;7.824;2023-09-19T12:06:27;25.50;99.90
8214;DHT22;4148;47.974;7.824;2023-09-19T12:08:56;25.60;99.90
8214;DHT22;4148;47.974;7.824;2023-09-19T12:11:30;25.60;99.90
8214;DHT22;4148;47.974;7.824;2023-09-19T12:14:01;25.50;99.90
8214;DHT22;4148;47.974;7.824;2023-09-19T12:16:31;25.50;99.90
8214;DHT22;4148;47.974;7.824;2023-09-19T12:19:17;25.50;99.90
8214;DHT22;4148;47.974;7.824;2023-09-19T12:21:58;25.20;99.90
8214;DHT22;4148;47.974;7.824;2023-09-19T12:24:32;25.10;99.90
8214;DHT22;4148;47.974;7.824;2023-09-19T12:27:04;25.00;99.90
8214;DHT22;4148;47.974;7.824;2023-09-19T12:29:42;24.90;99.90
8214;DHT22;4148;47.974;7.824;2023-09-19T12:32:10;24.80;99.90
8214;DHT22;4148;47.974;7.824;2023-09-19T12:34:38;24.80;99.90
8214;DHT22;4148;47.974;7.824;2023-09-19T12:37:10;24.60;99.90
8214;DHT22;4148;47.974;7.824;2023-09-19T12:39:50;24.40;99.90
8214;DHT22;4148;47.974;7.824;2023-09-19T12:42:23;24.20;99.90
8214;DHT22;4148;47.974;7.824;2023-09-19T12:44:55;24.10;99.90
8214;DHT22;4148;47.974;7.824;2023-09-19T12:47:24;24.00;99.90
8214;DHT22;4148;47.974;7.824;2023-09-19T12:50:12;23.90;99.90
8214;DHT22;4148;47.974;7.824;2023-09-19T12:52:45;23.70;99.90
8214;DHT22;4148;47.974;7.824;2023-09-19T12:55:23;23.70;99.90
8214;DHT22;4148;47.974;7.824;2023-09-19T12:58:08;23.70;99.90
8214;DHT22;4148;47.974;7.824;2023-09-19T13:00:38;23.80;99.90
8214;DHT22;4148;47.974;7.824;2023-09-19T13:03:15;23.80;99.90
8214;DHT22;4148;47.974;7.824;2023-09-19T13:05:50;23.70;99.90
8214;DHT22;4148;47.974;7.824;2023-09-19T13:08:23;23.70;99.90
8214;DHT22;4148;47.974;7.824;2023-09-19T13:11:07;23.70;99.90
8214;DHT22;4148;47.974;7.824;2023-09-19T13:13:39;23.60;99.90
8214;DHT22;4148;47.974;7.824;2023-09-19T13:16:11;23.60;99.90
8214;DHT22;4148;47.974;7.824;2023-09-19T13:18:42;23.60;99.90
8214;DHT22;4148;47.974;7.824;2023-09-19T13:21:12;23.50;99.90
8214;DHT22;4148;47.974;7.824;2023-09-19T13:23:50;23.50;99.90
8214;DHT22;4148;47.974;7.824;2023-09-19T13:26:18;23.40;99.90
8214;DHT22;4148;47.974;7.824;2023-09-19T13:28:48;23.30;99.90
8214;DHT22;4148;47.974;7.824;2023-09-19T13:31:16;23.20;99.90
8214;DHT22;4148;47.974;7.824;2023-09-19T13:33:46;23.10;99.90
8214;DHT22;4148;47.974;7.824;2023-09-19T13:36:14;23.10;99.90
8214;DHT22;4148;47.974;7.824;2023-09-19T13:38:42;23.10;99.90
8214;DHT22;4148;47.974;7.824;2023-09-19T13:41:13;23.10;99.90
8214;DHT22;4148;47.974;7.824;2023-09-19T13:43:42;23.20;99.90
8214;DHT22;4148;47.974;7.824;2023-09-19T13:46:12;23.20;99.90
8214;DHT22;4148;47.974;7.824;2023-09-19T13:48:42;23.20;99.90
8214;DHT22;4148;47.974;7.824;2023-09-19T13:51:10;23.20;99.90
8214;DHT22;4148;47.974;7.824;2023-09-19T13:53:38;23.20;99.90
8214;DHT22;4148;47.974;7.824;2023-09-19T13:56:06;23.20;99.90
8214;DHT22;4148;47.974;7.824;2023-09-19T13:58:35;23.10;99.90
8214;DHT22;4148;47.974;7.824;2023-09-19T14:01:02;23.10;99.90
8214;DHT22;4148;47.974;7.824;2023-09-19T14:03:32;23.10;99.90
8214;DHT22;4148;47.974;7.824;2023-09-19T14:06:00;23.00;99.90
8214;DHT22;4148;47.974;7.824;2023-09-19T14:08:28;23.00;99.90
8214;DHT22;4148;47.974;7.824;2023-09-19T14:10:56;23.10;99.90
8214;DHT22;4148;47.974;7.824;2023-09-19T14:13:24;23.00;99.90
8214;DHT22;4148;47.974;7.824;2023-09-19T14:15:52;23.00;99.90
8214;DHT22;4148;47.974;7.824;2023-09-19T14:18:20;22.90;99.90
8214;DHT22;4148;47.974;7.824;2023-09-19T14:20:50;23.00;99.90
8214;DHT22;4148;47.974;7.824;2023-09-19T14:23:19;23.00;99.90
8214;DHT22;4148;47.974;7.824;2023-09-19T14:25:47;23.00;99.90
8214;DHT22;4148;47.974;7.824;2023-09-19T14:28:15;22.90;99.90
8214;DHT22;4148;47.974;7.824;2023-09-19T14:30:43;22.90;99.90
8214;DHT22;4148;47.974;7.824;2023-09-19T14:33:12;22.80;99.90
8214;DHT22;4148;47.974;7.824;2023-09-19T14:35:42;22.80;99.90
8214;DHT22;4148;47.974;7.824;2023-09-19T14:38:12;22.80;99.90
8214;DHT22;4148;47.974;7.824;2023-09-19T14:40:40;22.70;99.90
8214;DHT22;4148;47.974;7.824;2023-09-19T14:43:09;22.70;99.90
8214;DHT22;4148;47.974;7.824;2023-09-19T14:45:36;22.60;99.90
8214;DHT22;4148;47.974;7.824;2023-09-19T14:48:05;22.60;99.90
8214;DHT22;4148;47.974;7.824;2023-09-19T14:50:36;22.60;99.90
8214;DHT22;4148;47.974;7.824;2023-09-19T14:53:04;22.50;99.90
8214;DHT22;4148;47.974;7.824;2023-09-19T14:55:38;22.60;99.90
8214;DHT22;4148;47.974;7.824;2023-09-19T14:58:08;22.50;99.90
8214;DHT22;4148;47.974;7.824;2023-09-19T15:00:36;22.50;99.90
8214;DHT22;4148;47.974;7.824;2023-09-19T15:03:04;22.50;99.90
8214;DHT22;4148;47.974;7.824;2023-09-19T15:05:32;22.50;99.90
8214;DHT22;4148;47.974;7.824;2023-09-19T15:08:01;22.50;99.90
8214;DHT22;4148;47.974;7.824;2023-09-19T15:10:29;22.50;99.90
8214;DHT22;4148;47.974;7.824;2023-09-19T15:12:58;22.50;99.90
8214;DHT22;4148;47.974;7.824;2023-09-19T15:15:26;22.40;99.90
8214;DHT22;4148;47.974;7.824;2023-09-19T15:17:54;22.40;99.90
8214;DHT22;4148;47.974;7.824;2023-09-19T15:20:23;22.40;99.90
8214;DHT22;4148;47.974;7.824;2023-09-19T15:22:51;22.40;99.90
8214;DHT22;4148;47.974;7.824;2023-09-19T15:25:19;22.40;99.90
8214;DHT22;4148;47.974;7.824;2023-09-19T15:27:47;22.40;99.90
8214;DHT22;4148;47.974;7.824;2023-09-19T15:30:18;22.40;99.90
8214;DHT22;4148;47.974;7.824;2023-09-19T15:32:46;22.30;99.90
8214;DHT22;4148;47.974;7.824;2023-09-19T15:35:15;22.30;99.90
8214;DHT22;4148;47.974;7.824;2023-09-19T15:37:44;22.30;99.90
8214;DHT22;4148;47.974;7.824;2023-09-19T15:40:13;22.20;99.90
8214;DHT22;4148;47.974;7.824;2023-09-19T15:42:41;22.20;99.90
8214;DHT22;4148;47.974;7.824;2023-09-19T15:45:10;22.20;99.90
8214;DHT22;4148;47.974;7.824;2023-09-19T15:47:40;22.20;99.90
8214;DHT22;4148;47.974;7.824;2023-09-19T15:50:09;22.20;99.90
8214;DHT22;4148;47.974;7.824;2023-09-19T15:52:40;22.10;99.90
8214;DHT22;4148;47.974;7.824;2023-09-19T15:55:09;22.10;99.90
8214;DHT22;4148;47.974;7.824;2023-09-19T15:57:38;22.10;99.90
8214;DHT22;4148;47.974;7.824;2023-09-19T16:00:07;22.00;99.90
8214;DHT22;4148;47.974;7.824;2023-09-19T16:02:42;22.00;99.90
8214;DHT22;4148;47.974;7.824;2023-09-19T16:05:10;22.00;99.90
8214;DHT22;4148;47.974;7.824;2023-09-19T16:07:39;22.00;99.90
8214;DHT22;4148;47.974;7.824;2023-09-19T16:10:08;22.00;99.90
8214;DHT22;4148;47.974;7.824;2023-09-19T16:12:35;21.90;99.90
8214;DHT22;4148;47.974;7.824;2023-09-19T16:15:05;21.90;99.90
8214;DHT22;4148;47.974;7.824;2023-09-19T16:17:36;21.80;99.90
8214;DHT22;4148;47.974;7.824;2023-09-19T16:20:06;21.80;99.90
8214;DHT22;4148;47.974;7.824;2023-09-19T16:22:39;21.80;99.90
8214;DHT22;4148;47.974;7.824;2023-09-19T16:25:07;21.70;99.90
8214;DHT22;4148;47.974;7.824;2023-09-19T16:27:38;21.60;99.90
8214;DHT22;4148;47.974;7.824;2023-09-19T16:30:07;21.60;99.90
8214;DHT22;4148;47.974;7.824;2023-09-19T16:32:36;21.50;99.90
8214;DHT22;4148;47.974;7.824;2023-09-19T16:35:07;21.50;99.90
8214;DHT22;4148;47.974;7.824;2023-09-19T16:37:37;21.50;99.90
8214;DHT22;4148;47.974;7.824;2023-09-19T16:40:07;21.40;99.90